Time;durP1;ratioP1;P1;durP2;ratioP2;P2;SDS_P1;SDS_P2;PMS_P1;PMS_P2;Temp;Humidity;BMP_temperature;BMP_pressure;BME280_temperature;BME280_humidity;BME280_pressure;Samples;Min_cycle;Max_cycle;Signal;HPM_P1;HPM_P2
2022/08/14 00:01:30;;;;;;;1.00;0.63;;;;;;;;;;5011773;28;20022;-70
2022/08/14 00:03:57;;;;;;;3.60;1.00;;;;;;;;;;5010266;28;20084;-71
2022/08/14 00:06:23;;;;;;;1.07;0.70;;;;;;;;;;5007868;28;20034;-71
2022/08/14 00:08:50;;;;;;;1.67;0.93;;;;;;;;;;5007941;28;20492;-70
2022/08/14 00:11:17;;;;;;;1.43;0.83;;;;;;;;;;5007629;28;20378;-71
2022/08/14 00:13:44;;;;;;;2.83;1.03;;;;;;;;;;5009098;28;20026;-71
2022/08/14 00:16:12;;;;;;;1.53;0.90;;;;;;;;;;5012279;28;20029;-70
2022/08/14 00:18:40;;;;;;;0.70;0.60;;;;;;;;;;5011229;28;20053;-71
2022/08/14 00:21:07;;;;;;;3.93;0.50;;;;;;;;;;5012596;28;20456;-65
2022/08/14 00:23:34;;;;;;;2.60;1.07;;;;;;;;;;5012393;28;20022;-71
2022/08/14 00:26:01;;;;;;;2.00;0.77;;;;;;;;;;5013103;28;20040;-71
2022/08/14 00:44:43;;;;;;;2.67;1.23;;;;;;;;;;5049217;27;2644117;-63
2022/08/14 00:47:09;;;;;;;1.37;1.00;;;;;;;;;;5090469;28;20039;-64
2022/08/14 00:49:36;;;;;;;0.73;0.70;;;;;;;;;;5086867;28;20050;-64
2022/08/14 00:52:05;;;;;;;2.00;0.83;;;;;;;;;;5090549;28;20031;-64
2022/08/14 00:54:32;;;;;;;1.83;0.60;;;;;;;;;;5084002;28;20052;-63
2022/08/14 00:56:59;;;;;;;3.73;1.23;;;;;;;;;;5089102;28;20087;-64
2022/08/14 00:59:30;;;;;;;2.40;1.00;;;;;;;;;;5097640;28;20415;-64
2022/08/14 01:01:58;;;;;;;0.83;0.70;;;;;;;;;;5100912;28;20487;-64
2022/08/14 01:04:27;;;;;;;1.73;1.27;;;;;;;;;;5090326;28;20020;-64
2022/08/14 01:06:54;;;;;;;1.40;1.00;;;;;;;;;;5101361;28;20024;-64
2022/08/14 01:09:21;;;;;;;4.57;1.27;;;;;;;;;;5094896;28;20117;-64
2022/08/14 01:11:49;;;;;;;1.67;1.00;;;;;;;;;;5083745;28;20020;-64
2022/08/14 01:14:16;;;;;;;3.77;1.40;;;;;;;;;;5095976;28;20028;-64
2022/08/14 01:16:43;;;;;;;1.93;1.27;;;;;;;;;;5084727;28;20020;-64
2022/08/14 01:21:55;;;;;;;;;;;;;;;;;;5081045;28;20047;-63
2022/08/14 01:24:22;;;;;;;2.20;1.37;;;;;;;;;;5089765;28;19908;-63
2022/08/14 01:26:50;;;;;;;1.43;1.10;;;;;;;;;;5100579;28;20067;-63
2022/08/14 01:29:18;;;;;;;0.93;0.80;;;;;;;;;;5090653;28;20040;-64
2022/08/14 01:31:54;;;;;;;2.93;1.43;;;;;;;;;;5095370;28;20023;-63
2022/08/14 01:34:24;;;;;;;1.23;0.90;;;;;;;;;;5082873;28;20029;-63
2022/08/14 01:36:52;;;;;;;1.00;0.90;;;;;;;;;;5083251;28;20043;-64
2022/08/14 01:39:19;;;;;;;1.13;0.87;;;;;;;;;;5083623;28;20020;-64
2022/08/14 01:41:51;;;;;;;5.30;1.43;;;;;;;;;;5088431;28;20035;-64
2022/08/14 01:44:18;;;;;;;2.10;1.17;;;;;;;;;;5082886;28;20036;-64
2022/08/14 01:46:45;;;;;;;1.87;1.37;;;;;;;;;;5074652;28;20021;-64
2022/08/14 01:49:14;;;;;;;3.07;1.73;;;;;;;;;;5074949;28;20455;-64
2022/08/14 01:51:43;;;;;;;3.30;0.93;;;;;;;;;;5076780;28;20111;-64
2022/08/14 01:54:14;;;;;;;1.80;1.43;;;;;;;;;;5067923;28;20415;-64
2022/08/14 01:56:43;;;;;;;1.60;1.30;;;;;;;;;;5084896;28;20031;-64
2022/08/14 01:59:15;;;;;;;1.23;1.07;;;;;;;;;;5089703;28;20644;-63
2022/08/14 02:01:42;;;;;;;2.03;1.20;;;;;;;;;;5073901;28;20029;-63
2022/08/14 02:04:09;;;;;;;1.63;1.30;;;;;;;;;;5080739;28;20060;-63
2022/08/14 02:06:36;;;;;;;1.93;1.33;;;;;;;;;;5093187;28;20501;-63
2022/08/14 02:09:07;;;;;;;2.33;1.53;;;;;;;;;;5089980;28;20024;-63
2022/08/14 02:11:35;;;;;;;0.87;0.77;;;;;;;;;;5082948;28;20026;-63
2022/08/14 02:14:06;;;;;;;1.23;1.00;;;;;;;;;;5092211;28;20677;-63
2022/08/14 02:16:35;;;;;;;2.03;1.20;;;;;;;;;;5087418;28;20028;-63
2022/08/14 02:19:03;;;;;;;2.43;1.00;;;;;;;;;;5087314;28;20672;-63
2022/08/14 02:21:31;;;;;;;1.40;0.97;;;;;;;;;;5085813;28;20027;-63
2022/08/14 02:24:00;;;;;;;1.30;1.03;;;;;;;;;;5085674;28;20016;-63
2022/08/14 02:26:31;;;;;;;4.37;1.33;;;;;;;;;;5094592;28;20031;-63
2022/08/14 02:29:02;;;;;;;1.87;1.37;;;;;;;;;;5087907;28;20082;-63
2022/08/14 02:31:31;;;;;;;1.63;1.10;;;;;;;;;;5087884;28;20472;-63
2022/08/14 02:34:18;;;;;;;1.97;1.47;;;;;;;;;;5088757;28;20074;-63
2022/08/14 02:36:46;;;;;;;1.73;1.33;;;;;;;;;;5076831;28;20025;-63
2022/08/14 02:39:14;;;;;;;1.83;1.23;;;;;;;;;;5087510;28;20043;-63
2022/08/14 02:41:43;;;;;;;1.10;0.97;;;;;;;;;;5068576;28;20024;-63
2022/08/14 02:44:11;;;;;;;1.60;1.17;;;;;;;;;;5069486;28;20592;-63
2022/08/14 02:46:43;;;;;;;4.33;1.87;;;;;;;;;;5069306;28;20028;-63
2022/08/14 02:49:10;;;;;;;7.07;1.33;;;;;;;;;;5089913;28;20031;-63
2022/08/14 02:51:37;;;;;;;3.17;2.03;;;;;;;;;;5080509;28;20033;-63
2022/08/14 02:54:08;;;;;;;1.40;1.13;;;;;;;;;;5073644;28;20111;-63
2022/08/14 02:56:39;;;;;;;2.83;2.07;;;;;;;;;;5084421;28;20031;-63
2022/08/14 02:59:07;;;;;;;3.27;2.13;;;;;;;;;;5085100;28;20025;-63
2022/08/14 03:01:34;;;;;;;4.67;2.43;;;;;;;;;;5068374;28;20028;-63
2022/08/14 03:04:04;;;;;;;2.23;1.63;;;;;;;;;;5068352;28;20111;-64
2022/08/14 03:06:31;;;;;;;8.60;2.43;;;;;;;;;;5048303;28;20028;-63
2022/08/14 03:08:58;;;;;;;4.27;2.20;;;;;;;;;;5064361;28;20039;-63
2022/08/14 03:11:25;;;;;;;2.07;1.57;;;;;;;;;;5087698;28;20492;-63
2022/08/14 03:13:52;;;;;;;3.73;1.53;;;;;;;;;;5089386;28;20043;-63
2022/08/14 03:16:22;;;;;;;4.20;2.63;;;;;;;;;;5076785;28;20044;-62
2022/08/14 03:18:52;;;;;;;4.17;2.20;;;;;;;;;;5073157;28;20075;-63
2022/08/14 03:21:19;;;;;;;2.07;1.50;;;;;;;;;;5072808;28;20017;-63
2022/08/14 03:23:47;;;;;;;2.53;1.73;;;;;;;;;;5064512;28;20042;-63
2022/08/14 03:26:16;;;;;;;2.67;2.03;;;;;;;;;;5066040;28;20028;-63
2022/08/14 03:28:44;;;;;;;6.73;1.47;;;;;;;;;;5065843;28;20024;-63
2022/08/14 03:31:12;;;;;;;2.33;1.63;;;;;;;;;;5066064;28;20091;-63
2022/08/14 03:33:39;;;;;;;2.23;1.47;;;;;;;;;;5071181;28;20107;-63
2022/08/14 03:36:12;;;;;;;2.90;2.10;;;;;;;;;;5071666;28;20012;-63
2022/08/14 03:38:41;;;;;;;1.77;1.47;;;;;;;;;;5071278;28;20471;-63
2022/08/14 03:41:15;;;;;;;4.10;2.43;;;;;;;;;;5072448;28;20017;-63
2022/08/14 03:43:45;;;;;;;3.87;2.27;;;;;;;;;;5067143;28;20309;-63
2022/08/14 03:46:12;;;;;;;2.53;1.63;;;;;;;;;;5048414;28;20029;-63
2022/08/14 03:48:40;;;;;;;11.67;2.30;;;;;;;;;;5050903;28;20028;-63
2022/08/14 03:51:08;;;;;;;3.73;2.70;;;;;;;;;;5066879;28;20020;-64
2022/08/14 03:53:36;;;;;;;4.17;2.10;;;;;;;;;;5068215;28;20769;-63
2022/08/14 03:56:07;;;;;;;6.27;2.07;;;;;;;;;;5073008;28;20475;-63
2022/08/14 03:58:34;;;;;;;3.50;2.40;;;;;;;;;;5074360;28;20163;-57
2022/08/14 04:01:01;;;;;;;3.20;2.13;;;;;;;;;;5073215;28;20544;-62
2022/08/14 04:03:28;;;;;;;1.10;0.80;;;;;;;;;;5071995;28;20043;-59
2022/08/14 04:05:54;;;;;;;4.17;1.57;;;;;;;;;;5077158;28;20513;-61
2022/08/14 04:08:21;;;;;;;0.60;0.60;;;;;;;;;;5088163;28;20034;-63
2022/08/14 04:10:48;;;;;;;1.37;0.90;;;;;;;;;;5079311;28;20055;-63
2022/08/14 04:13:18;;;;;;;1.03;0.87;;;;;;;;;;5078195;28;20119;-63
2022/08/14 04:15:47;;;;;;;1.23;1.03;;;;;;;;;;5072665;28;20470;-63
2022/08/14 04:18:14;;;;;;;0.80;0.70;;;;;;;;;;5089785;28;20054;-63
2022/08/14 04:20:41;;;;;;;1.50;0.90;;;;;;;;;;5078492;28;20505;-63
2022/08/14 04:23:09;;;;;;;1.47;0.90;;;;;;;;;;5073168;28;20027;-63
2022/08/14 04:25:36;;;;;;;0.97;0.63;;;;;;;;;;5086042;28;20028;-63
2022/08/14 04:28:05;;;;;;;3.53;1.33;;;;;;;;;;5092605;28;20077;-65
2022/08/14 04:30:38;;;;;;;4.07;1.03;;;;;;;;;;5056032;28;20028;-63
2022/08/14 04:33:07;;;;;;;0.80;0.60;;;;;;;;;;5060840;28;20074;-62
2022/08/14 04:35:38;;;;;;;0.87;0.70;;;;;;;;;;5069835;28;20020;-63
2022/08/14 04:43:39;;;;;;;2.55;1.13;;;;;;;;;;5079712;28;20047;-63
2022/08/14 04:46:14;;;;;;;1.73;1.17;;;;;;;;;;5073039;28;20047;-58
2022/08/14 04:48:41;;;;;;;0.55;0.52;;;;;;;;;;5086421;28;20033;-63
2022/08/14 04:51:09;;;;;;;1.80;0.90;;;;;;;;;;5074707;28;20032;-63
2022/08/14 04:53:37;;;;;;;1.10;0.83;;;;;;;;;;5079897;28;20036;-63
2022/08/14 04:56:05;;;;;;;2.20;1.33;;;;;;;;;;5087864;28;20405;-63
2022/08/14 04:58:32;;;;;;;1.10;1.00;;;;;;;;;;5073795;28;20016;-63
2022/08/14 05:00:59;;;;;;;1.07;0.80;;;;;;;;;;5067676;28;20100;-63
2022/08/14 05:03:27;;;;;;;0.83;0.77;;;;;;;;;;5072376;28;20520;-63
2022/08/14 05:05:55;;;;;;;0.93;0.80;;;;;;;;;;5072605;28;20483;-63
2022/08/14 05:08:22;;;;;;;0.73;0.53;;;;;;;;;;5072521;28;20024;-63
2022/08/14 05:10:51;;;;;;;1.83;1.30;;;;;;;;;;5060045;28;20115;-63
2022/08/14 05:13:18;;;;;;;1.17;0.80;;;;;;;;;;5070767;28;20037;-63
2022/08/14 05:15:45;;;;;;;1.13;1.00;;;;;;;;;;5067179;28;20475;-63
2022/08/14 05:18:16;;;;;;;0.97;0.80;;;;;;;;;;5049270;28;20499;-62
2022/08/14 05:20:45;;;;;;;3.73;1.33;;;;;;;;;;5070215;28;20055;-63
2022/08/14 05:23:13;;;;;;;3.57;1.00;;;;;;;;;;5072362;28;20486;-61
2022/08/14 05:25:40;;;;;;;1.20;0.93;;;;;;;;;;5076152;28;20016;-62
2022/08/14 05:28:18;;;;;;;2.47;1.03;;;;;;;;;;5090905;28;20111;-63
2022/08/14 05:30:45;;;;;;;28.30;1.20;;;;;;;;;;5095458;28;20031;-63
2022/08/14 05:33:13;;;;;;;1.17;0.93;;;;;;;;;;5093562;28;20032;-63
2022/08/14 05:35:40;;;;;;;1.00;0.73;;;;;;;;;;5077703;28;20193;-63
2022/08/14 05:38:11;;;;;;;1.13;0.77;;;;;;;;;;5048327;28;20027;-63
2022/08/14 05:40:38;;;;;;;0.93;0.63;;;;;;;;;;5048482;28;20029;-64
2022/08/14 05:43:05;;;;;;;0.80;0.80;;;;;;;;;;5049254;28;20033;-63
2022/08/14 05:45:34;;;;;;;1.17;0.97;;;;;;;;;;5050852;28;20134;-63
2022/08/14 05:48:01;;;;;;;1.53;0.80;;;;;;;;;;5086250;28;20024;-63
2022/08/14 05:50:28;;;;;;;3.10;1.10;;;;;;;;;;5095627;28;20371;-63
2022/08/14 05:52:55;;;;;;;1.30;0.93;;;;;;;;;;5095207;28;20517;-63
2022/08/14 05:55:22;;;;;;;1.50;1.17;;;;;;;;;;5095068;28;20020;-63
2022/08/14 05:57:53;;;;;;;0.87;0.70;;;;;;;;;;5093781;28;20020;-63
2022/08/14 06:00:21;;;;;;;1.00;0.60;;;;;;;;;;5089482;28;20031;-63
2022/08/14 06:02:48;;;;;;;0.60;0.50;;;;;;;;;;5070117;28;20371;-63
2022/08/14 06:05:15;;;;;;;1.30;0.90;;;;;;;;;;5089718;28;20111;-63
2022/08/14 06:07:42;;;;;;;1.30;0.80;;;;;;;;;;5075342;28;21332;-63
2022/08/14 06:10:10;;;;;;;1.03;0.77;;;;;;;;;;5074602;28;20387;-63
2022/08/14 06:12:38;;;;;;;2.40;1.30;;;;;;;;;;5074639;28;20506;-63
2022/08/14 06:15:05;;;;;;;1.40;0.90;;;;;;;;;;5074776;28;20390;-64
2022/08/14 06:17:32;;;;;;;1.57;1.20;;;;;;;;;;5074439;28;20063;-63
2022/08/14 06:19:59;;;;;;;2.30;1.23;;;;;;;;;;5073054;28;20025;-64
2022/08/14 06:22:26;;;;;;;1.13;0.83;;;;;;;;;;5069057;28;20054;-63
2022/08/14 06:24:53;;;;;;;1.33;0.80;;;;;;;;;;5069168;28;20097;-63
2022/08/14 06:27:19;;;;;;;2.50;1.50;;;;;;;;;;5081564;28;20030;-64
2022/08/14 06:29:46;;;;;;;2.30;1.23;;;;;;;;;;5089188;28;20024;-63
2022/08/14 06:32:13;;;;;;;6.37;0.93;;;;;;;;;;5094368;28;20020;-63
2022/08/14 06:34:40;;;;;;;2.80;1.93;;;;;;;;;;5094298;28;20019;-63
2022/08/14 06:37:06;;;;;;;4.60;0.80;;;;;;;;;;5094070;28;20027;-63
2022/08/14 06:39:33;;;;;;;1.00;0.80;;;;;;;;;;5094417;28;20818;-63
2022/08/14 06:42:00;;;;;;;2.17;1.00;;;;;;;;;;5094001;28;20378;-63
2022/08/14 06:44:28;;;;;;;1.30;0.90;;;;;;;;;;5088776;28;20028;-63
2022/08/14 06:46:55;;;;;;;1.53;1.17;;;;;;;;;;5078281;28;20032;-63
2022/08/14 06:49:22;;;;;;;1.87;1.07;;;;;;;;;;5068553;28;20024;-63
2022/08/14 06:51:48;;;;;;;1.10;0.70;;;;;;;;;;5068261;28;20446;-64
2022/08/14 06:54:15;;;;;;;2.47;1.43;;;;;;;;;;5073315;28;20032;-63
2022/08/14 06:56:42;;;;;;;1.90;1.20;;;;;;;;;;5073784;28;20082;-63
2022/08/14 06:59:08;;;;;;;7.60;1.30;;;;;;;;;;5073679;28;20471;-63
2022/08/14 07:07:05;;;;;;;1.55;0.93;;;;;;;;;;5081160;28;20071;-63
2022/08/14 07:09:32;;;;;;;2.87;1.70;;;;;;;;;;5088476;28;20040;-63
2022/08/14 07:11:59;;;;;;;2.67;1.50;;;;;;;;;;5088282;28;20022;-63
2022/08/14 07:14:26;;;;;;;4.27;0.97;;;;;;;;;;5088333;28;20028;-63
2022/08/14 07:16:52;;;;;;;1.77;1.07;;;;;;;;;;5093576;28;20031;-63
2022/08/14 07:19:19;;;;;;;0.80;0.77;;;;;;;;;;5093266;28;20051;-63
2022/08/14 07:21:46;;;;;;;0.60;0.60;;;;;;;;;;5093586;28;20034;-63
2022/08/14 07:24:12;;;;;;;1.10;0.80;;;;;;;;;;5093145;28;20024;-63
2022/08/14 07:26:40;;;;;;;2.87;0.60;;;;;;;;;;5081796;28;20021;-63
2022/08/14 07:29:07;;;;;;;0.90;0.77;;;;;;;;;;5067646;28;20127;-64
2022/08/14 07:31:33;;;;;;;3.20;1.63;;;;;;;;;;5067701;28;20384;-63
2022/08/14 07:34:00;;;;;;;1.17;0.80;;;;;;;;;;5067363;28;20047;-64
2022/08/14 07:36:27;;;;;;;1.07;0.77;;;;;;;;;;5067525;28;20025;-63
2022/08/14 07:38:53;;;;;;;1.50;1.23;;;;;;;;;;5072527;28;20111;-63
2022/08/14 07:41:20;;;;;;;1.60;1.07;;;;;;;;;;5072673;28;20052;-63
2022/08/14 07:43:47;;;;;;;2.00;1.40;;;;;;;;;;5072294;28;20028;-63
2022/08/14 07:46:15;;;;;;;2.67;1.67;;;;;;;;;;5081520;28;20027;-63
2022/08/14 07:48:44;;;;;;;1.90;1.37;;;;;;;;;;5093245;28;20020;-63
2022/08/14 07:51:11;;;;;;;1.30;1.10;;;;;;;;;;5087209;28;20107;-63
2022/08/14 07:53:39;;;;;;;1.83;0.80;;;;;;;;;;5087445;28;20032;-63
2022/08/14 07:56:06;;;;;;;1.20;1.10;;;;;;;;;;5074341;28;20032;-63
2022/08/14 07:58:32;;;;;;;1.63;1.20;;;;;;;;;;5067170;28;20146;-63
2022/08/14 08:01:01;;;;;;;1.40;1.20;;;;;;;;;;5071837;28;20478;-63
2022/08/14 08:03:28;;;;;;;1.80;1.47;;;;;;;;;;5072518;28;20077;-63
2022/08/14 08:05:55;;;;;;;2.57;1.60;;;;;;;;;;5072534;28;20029;-63
2022/08/14 08:08:21;;;;;;;2.53;1.90;;;;;;;;;;5072392;28;20028;-63
2022/08/14 08:10:48;;;;;;;1.20;1.10;;;;;;;;;;5072469;28;20036;-63
2022/08/14 08:13:22;;;;;;;26.60;1.87;;;;;;;;;;5067419;28;20478;-63
2022/08/14 08:15:50;;;;;;;1.47;1.30;;;;;;;;;;5077775;28;20142;-64
2022/08/14 08:18:17;;;;;;;5.77;1.90;;;;;;;;;;5087247;28;20023;-63
2022/08/14 08:20:45;;;;;;;2.30;1.50;;;;;;;;;;5087290;28;20485;-63
2022/08/14 08:23:12;;;;;;;1.47;1.20;;;;;;;;;;5091542;28;20060;-63
2022/08/14 08:25:41;;;;;;;1.53;1.40;;;;;;;;;;5092613;28;20045;-63
2022/08/14 08:28:08;;;;;;;2.00;1.50;;;;;;;;;;5092376;28;20026;-64
2022/08/14 08:30:37;;;;;;;2.03;1.00;;;;;;;;;;5092426;28;20082;-63
2022/08/14 08:33:04;;;;;;;1.43;1.20;;;;;;;;;;5092203;28;20115;-63
2022/08/14 08:35:33;;;;;;;1.20;0.97;;;;;;;;;;5077034;28;20021;-63
2022/08/14 08:38:02;;;;;;;1.63;1.17;;;;;;;;;;5067431;28;20066;-63
2022/08/14 08:40:30;;;;;;;1.97;1.13;;;;;;;;;;5072416;28;20701;-63
2022/08/14 08:42:57;;;;;;;1.53;1.13;;;;;;;;;;5086974;28;20107;-63
2022/08/14 08:45:24;;;;;;;2.50;1.50;;;;;;;;;;5091191;28;20443;-63
2022/08/14 08:47:51;;;;;;;1.63;1.30;;;;;;;;;;5092448;28;20034;-63
2022/08/14 08:50:20;;;;;;;1.37;0.90;;;;;;;;;;5092081;28;20024;-63
2022/08/14 08:52:48;;;;;;;1.17;0.87;;;;;;;;;;5091732;28;20524;-63
2022/08/14 08:55:16;;;;;;;1.70;1.07;;;;;;;;;;5090324;28;20029;-63
2022/08/14 08:57:43;;;;;;;1.07;0.77;;;;;;;;;;5071173;28;20103;-64
2022/08/14 09:00:17;;;;;;;0.63;0.60;;;;;;;;;;5070625;28;20036;-63
2022/08/14 09:02:58;;;;;;;0.75;0.50;;;;;;;;;;5070667;28;20023;-63
2022/08/14 09:05:25;;;;;;;2.60;0.43;;;;;;;;;;5070434;28;20028;-63
2022/08/14 09:07:52;;;;;;;0.60;0.50;;;;;;;;;;5075151;28;20117;-63
2022/08/14 09:10:18;;;;;;;0.47;0.40;;;;;;;;;;5075756;28;20082;-63
2022/08/14 09:12:46;;;;;;;0.50;0.40;;;;;;;;;;5075666;28;20462;-63
2022/08/14 09:15:13;;;;;;;1.03;0.40;;;;;;;;;;5079896;28;20024;-63
2022/08/14 09:17:40;;;;;;;0.50;0.30;;;;;;;;;;5096025;28;20024;-63
2022/08/14 09:20:07;;;;;;;0.37;0.27;;;;;;;;;;5090329;28;20031;-63
2022/08/14 09:22:35;;;;;;;0.20;0.20;;;;;;;;;;5090652;28;20713;-63
2022/08/14 09:25:02;;;;;;;0.20;0.20;;;;;;;;;;5090231;28;20017;-63
2022/08/14 09:27:28;;;;;;;0.43;0.20;;;;;;;;;;5090321;28;20035;-63
2022/08/14 09:29:55;;;;;;;0.70;0.23;;;;;;;;;;5094631;28;20020;-63
2022/08/14 09:32:27;;;;;;;0.10;0.10;;;;;;;;;;5095511;28;20023;-63
2022/08/14 09:35:03;;;;;;;0.17;0.17;;;;;;;;;;5095601;28;20120;-63
2022/08/14 09:37:53;;;;;;;0.00;0.00;;;;;;;;;;5089279;28;20086;-63
2022/08/14 09:40:23;;;;;;;0.60;0.30;;;;;;;;;;5074757;28;20040;-63
2022/08/14 09:43:00;;;;;;;0.30;0.27;;;;;;;;;;5069767;28;20024;-63
2022/08/14 09:45:38;;;;;;;0.10;0.10;;;;;;;;;;5069975;28;20037;-63
2022/08/14 09:48:14;;;;;;;0.30;0.20;;;;;;;;;;5069712;28;20033;-63
2022/08/14 09:50:48;;;;;;;0.20;0.20;;;;;;;;;;5070423;28;20038;-63
2022/08/14 09:53:40;;;;;;;1.67;0.52;;;;;;;;;;5074418;28;20036;-63
2022/08/14 09:56:07;;;;;;;0.47;0.33;;;;;;;;;;5065797;28;20059;-63
2022/08/14 09:58:42;;;;;;;0.50;0.33;;;;;;;;;;5074931;28;20048;-63
2022/08/14 10:01:08;;;;;;;;;;;;;;;;;;5072789;28;20032;-63
2022/08/14 10:03:36;;;;;;;0.80;0.50;;;;;;;;;;5072300;28;19912;-63
2022/08/14 10:06:08;;;;;;;1.77;0.50;;;;;;;;;;5068871;28;20030;-64
2022/08/14 10:08:49;;;;;;;0.50;0.40;;;;;;;;;;5069334;28;20211;-63
2022/08/14 10:11:18;;;;;;;1.80;0.50;;;;;;;;;;5069433;28;20016;-63
2022/08/14 10:13:53;;;;;;;0.10;0.10;;;;;;;;;;5071525;28;20032;-63
2022/08/14 10:16:24;;;;;;;1.13;0.50;;;;;;;;;;5074530;28;20036;-63
2022/08/14 10:19:01;;;;;;;0.53;0.50;;;;;;;;;;5074765;28;20027;-63
2022/08/14 10:21:28;;;;;;;0.93;0.20;;;;;;;;;;5080595;28;20016;-63
2022/08/14 10:23:54;;;;;;;0.30;0.30;;;;;;;;;;5094698;28;20055;-63
2022/08/14 10:26:21;;;;;;;1.27;0.77;;;;;;;;;;5090999;28;20032;-63
2022/08/14 10:28:49;;;;;;;0.30;0.30;;;;;;;;;;5089316;28;20034;-63
2022/08/14 10:31:17;;;;;;;4.60;0.43;;;;;;;;;;5088729;28;20024;-63
2022/08/14 10:33:45;;;;;;;0.07;0.07;;;;;;;;;;5088902;28;20505;-64
2022/08/14 10:36:11;;;;;;;0.43;0.30;;;;;;;;;;5092037;28;20027;-63
2022/08/14 10:38:38;;;;;;;0.77;0.43;;;;;;;;;;5094341;28;20351;-64
2022/08/14 10:41:12;;;;;;;0.33;0.20;;;;;;;;;;5093932;28;20024;-63
2022/08/14 10:43:40;;;;;;;0.30;0.30;;;;;;;;;;5086487;28;20024;-63
2022/08/14 10:46:16;;;;;;;0.83;0.43;;;;;;;;;;5073808;28;20025;-63
2022/08/14 10:48:55;;;;;;;0.93;0.40;;;;;;;;;;5070299;28;20024;-63
2022/08/14 10:51:26;;;;;;;0.70;0.40;;;;;;;;;;5068146;28;20375;-63
2022/08/14 10:53:57;;;;;;;0.17;0.17;;;;;;;;;;5068533;28;20145;-63
2022/08/14 10:56:32;;;;;;;0.10;0.10;;;;;;;;;;5068497;28;20035;-63
2022/08/14 10:59:03;;;;;;;0.30;0.10;;;;;;;;;;5072242;28;20099;-63
2022/08/14 11:01:33;;;;;;;0.30;0.30;;;;;;;;;;5073612;28;20026;-63
2022/08/14 11:04:00;;;;;;;1.37;0.40;;;;;;;;;;5073684;28;20052;-63
2022/08/14 11:06:30;;;;;;;0.60;0.40;;;;;;;;;;5090401;28;20059;-63
2022/08/14 11:08:56;;;;;;;0.30;0.30;;;;;;;;;;5093720;28;20035;-63
2022/08/14 11:11:26;;;;;;;12.33;0.73;;;;;;;;;;5089142;28;20090;-63
2022/08/14 11:13:56;;;;;;;0.37;0.30;;;;;;;;;;5088294;28;20028;-63
2022/08/14 11:16:25;;;;;;;0.70;0.60;;;;;;;;;;5087533;28;20047;-64
2022/08/14 11:18:52;;;;;;;2.27;0.97;;;;;;;;;;5087907;28;20059;-63
2022/08/14 11:21:21;;;;;;;5.83;3.00;;;;;;;;;;5092056;28;20471;-63
2022/08/14 11:23:48;;;;;;;8.97;5.33;;;;;;;;;;5093456;28;20485;-63
2022/08/14 11:26:19;;;;;;;7.93;5.40;;;;;;;;;;5093519;28;20028;-63
2022/08/14 11:28:48;;;;;;;6.17;4.23;;;;;;;;;;5073346;28;20108;-63
2022/08/14 11:31:15;;;;;;;9.00;4.27;;;;;;;;;;5072753;28;20025;-63
2022/08/14 11:33:42;;;;;;;7.20;3.17;;;;;;;;;;5068484;28;20067;-63
2022/08/14 11:36:12;;;;;;;3.73;2.13;;;;;;;;;;5067699;28;20027;-63
2022/08/14 11:38:44;;;;;;;2.20;1.77;;;;;;;;;;5067725;28;20028;-63
2022/08/14 11:41:11;;;;;;;2.53;2.10;;;;;;;;;;5067381;28;20503;-63
2022/08/14 11:43:39;;;;;;;2.90;1.90;;;;;;;;;;5071525;28;20036;-63
2022/08/14 11:46:06;;;;;;;3.77;1.97;;;;;;;;;;5072347;28;20020;-63
2022/08/14 11:48:32;;;;;;;1.67;1.33;;;;;;;;;;5077890;28;20020;-63
2022/08/14 11:50:59;;;;;;;1.60;1.10;;;;;;;;;;5093159;28;20074;-63
2022/08/14 11:53:29;;;;;;;5.20;3.40;;;;;;;;;;5092976;28;20039;-63
2022/08/14 11:55:56;;;;;;;14.33;9.00;;;;;;;;;;5088439;28;20490;-63
2022/08/14 11:58:27;;;;;;;7.23;5.63;;;;;;;;;;5087417;28;20024;-63
2022/08/14 12:00:59;;;;;;;41.30;4.63;;;;;;;;;;5087106;28;20024;-63
2022/08/14 12:03:45;;;;;;;6.13;4.50;;;;;;;;;;5087423;28;20024;-63
2022/08/14 12:06:13;;;;;;;3.77;2.93;;;;;;;;;;5092188;28;20092;-63
2022/08/14 12:08:41;;;;;;;3.23;1.77;;;;;;;;;;5092765;28;20494;-63
2022/08/14 12:11:09;;;;;;;1.93;1.33;;;;;;;;;;5081831;28;20020;-63
2022/08/14 12:13:36;;;;;;;2.43;1.50;;;;;;;;;;5072431;28;20055;-63
2022/08/14 12:16:05;;;;;;;0.83;0.50;;;;;;;;;;5072428;28;20344;-62
2022/08/14 12:18:33;;;;;;;1.80;1.20;;;;;;;;;;5067109;28;20355;-63
2022/08/14 12:21:17;;;;;;;2.67;1.50;;;;;;;;;;5067201;28;20039;-63
2022/08/14 12:23:44;;;;;;;4.43;3.43;;;;;;;;;;5066974;28;20048;-62
2022/08/14 12:26:20;;;;;;;5.30;1.90;;;;;;;;;;5066979;28;20035;-64
2022/08/14 12:28:50;;;;;;;1.83;1.20;;;;;;;;;;5072046;28;20020;-63
2022/08/14 12:31:18;;;;;;;0.80;0.60;;;;;;;;;;5081934;28;20036;-63
2022/08/14 12:33:59;;;;;;;1.30;0.93;;;;;;;;;;5092165;28;20032;-64
2022/08/14 12:36:29;;;;;;;1.00;0.80;;;;;;;;;;5092339;28;20024;-64
2022/08/14 12:38:59;;;;;;;7.00;2.20;;;;;;;;;;5091223;28;20041;-63
2022/08/14 12:41:28;;;;;;;1.80;1.10;;;;;;;;;;5086844;28;20017;-63
2022/08/14 12:44:00;;;;;;;2.63;1.77;;;;;;;;;;5086875;28;20032;-63
2022/08/14 12:46:29;;;;;;;2.20;1.90;;;;;;;;;;5086680;28;20033;-63
2022/08/14 12:48:57;;;;;;;4.23;2.13;;;;;;;;;;5087115;28;20056;-63
2022/08/14 12:51:25;;;;;;;0.63;0.63;;;;;;;;;;5079606;28;20020;-63
2022/08/14 12:53:53;;;;;;;4.10;1.90;;;;;;;;;;5072063;28;20357;-63
2022/08/14 12:56:20;;;;;;;5.93;1.37;;;;;;;;;;5071951;28;20021;-63
2022/08/14 12:58:51;;;;;;;1.40;1.27;;;;;;;;;;5072004;28;20103;-63
2022/08/14 13:01:19;;;;;;;1.10;0.93;;;;;;;;;;5070878;28;20024;-63
2022/08/14 13:03:46;;;;;;;1.43;0.93;;;;;;;;;;5066419;28;20025;-63
2022/08/14 13:06:14;;;;;;;1.70;1.10;;;;;;;;;;5066438;28;20031;-63
2022/08/14 13:08:41;;;;;;;1.30;0.80;;;;;;;;;;5066507;28;20020;-63
2022/08/14 13:11:12;;;;;;;0.70;0.63;;;;;;;;;;5066627;28;20020;-63
2022/08/14 13:13:42;;;;;;;0.50;0.40;;;;;;;;;;5088236;28;20123;-63
2022/08/14 13:16:08;;;;;;;0.20;0.20;;;;;;;;;;5092226;28;20020;-63
2022/08/14 13:18:37;;;;;;;0.50;0.40;;;;;;;;;;5092025;28;20062;-63
2022/08/14 13:21:04;;;;;;;1.33;0.63;;;;;;;;;;5092124;28;20047;-63
2022/08/14 13:23:35;;;;;;;1.07;0.50;;;;;;;;;;5090691;28;20020;-63
2022/08/14 13:26:02;;;;;;;0.67;0.40;;;;;;;;;;5086635;28;20023;-63
2022/08/14 13:28:29;;;;;;;1.63;1.00;;;;;;;;;;5086492;28;20093;-63
2022/08/14 13:30:57;;;;;;;0.63;0.63;;;;;;;;;;5086500;28;20036;-63
2022/08/14 13:33:24;;;;;;;7.17;0.80;;;;;;;;;;5086689;28;20028;-63
2022/08/14 13:35:51;;;;;;;1.20;1.00;;;;;;;;;;5076303;28;20154;-63
2022/08/14 13:38:21;;;;;;;1.90;1.27;;;;;;;;;;5071699;28;20056;-63
2022/08/14 13:40:54;;;;;;;2.33;0.90;;;;;;;;;;5072994;28;20048;-63
2022/08/14 13:43:24;;;;;;;0.97;0.70;;;;;;;;;;5074762;28;20105;-63
2022/08/14 13:45:54;;;;;;;1.70;0.70;;;;;;;;;;5073999;28;20032;-62
2022/08/14 13:48:21;;;;;;;0.43;0.40;;;;;;;;;;5069748;28;20433;-63
2022/08/14 13:50:50;;;;;;;2.27;1.23;;;;;;;;;;5069688;28;20497;-63
2022/08/14 13:53:17;;;;;;;11.00;0.93;;;;;;;;;;5069538;28;20040;-63
2022/08/14 13:55:44;;;;;;;0.43;0.37;;;;;;;;;;5080611;28;20028;-63
2022/08/14 13:58:13;;;;;;;0.70;0.70;;;;;;;;;;5094728;28;20046;-63
2022/08/14 14:00:40;;;;;;;0.90;0.60;;;;;;;;;;5095307;28;20093;-63
2022/08/14 14:03:07;;;;;;;0.57;0.57;;;;;;;;;;5095140;28;20023;-63
2022/08/14 14:05:35;;;;;;;0.60;0.60;;;;;;;;;;5095049;28;20340;-63
2022/08/14 14:08:04;;;;;;;2.70;0.83;;;;;;;;;;5094492;28;20399;-63
2022/08/14 14:10:32;;;;;;;0.50;0.50;;;;;;;;;;5089579;28;20028;-63
2022/08/14 14:12:59;;;;;;;0.20;0.17;;;;;;;;;;5089125;28;20028;-63
2022/08/14 14:15:26;;;;;;;2.40;0.73;;;;;;;;;;5089440;28;20084;-63
2022/08/14 14:17:53;;;;;;;0.37;0.37;;;;;;;;;;5072872;28;20046;-63
2022/08/14 14:20:24;;;;;;;0.13;0.13;;;;;;;;;;5074619;28;20479;-63
2022/08/14 14:22:51;;;;;;;0.37;0.37;;;;;;;;;;5074401;28;20016;-63
2022/08/14 14:25:19;;;;;;;0.20;0.20;;;;;;;;;;5074375;28;20095;-63
2022/08/14 14:27:47;;;;;;;0.50;0.30;;;;;;;;;;5073914;28;20016;-63
2022/08/14 14:30:15;;;;;;;0.43;0.33;;;;;;;;;;5073863;28;20024;-63
2022/08/14 14:32:43;;;;;;;0.50;0.50;;;;;;;;;;5068822;28;20025;-63
2022/08/14 14:35:14;;;;;;;0.20;0.20;;;;;;;;;;5068962;28;20021;-63
2022/08/14 14:37:42;;;;;;;0.70;0.63;;;;;;;;;;5068836;28;20039;-63
2022/08/14 14:40:12;;;;;;;0.33;0.20;;;;;;;;;;5088148;28;20428;-63
2022/08/14 14:42:44;;;;;;;0.57;0.43;;;;;;;;;;5094168;28;20020;-63
2022/08/14 14:45:16;;;;;;;0.50;0.40;;;;;;;;;;5094451;28;20043;-63
2022/08/14 14:47:45;;;;;;;0.77;0.60;;;;;;;;;;5094106;28;20024;-63
2022/08/14 14:50:12;;;;;;;0.60;0.50;;;;;;;;;;5094184;28;20034;-63
2022/08/14 14:52:40;;;;;;;0.97;0.70;;;;;;;;;;5093308;28;20038;-63
2022/08/14 14:55:07;;;;;;;0.73;0.63;;;;;;;;;;5088270;28;20021;-63
2022/08/14 14:57:35;;;;;;;1.00;0.70;;;;;;;;;;5088755;28;20546;-63
2022/08/14 15:00:01;;;;;;;1.77;0.80;;;;;;;;;;5082352;28;20035;-63
2022/08/14 15:02:33;;;;;;;0.77;0.50;;;;;;;;;;5068311;28;20023;-63
2022/08/14 15:05:01;;;;;;;0.80;0.80;;;;;;;;;;5073640;28;20013;-63
2022/08/14 15:07:27;;;;;;;1.03;0.40;;;;;;;;;;5073366;28;20070;-64
2022/08/14 15:09:54;;;;;;;1.50;0.60;;;;;;;;;;5073214;28;20021;-64
2022/08/14 15:12:22;;;;;;;1.03;0.53;;;;;;;;;;5073642;28;20024;-63
2022/08/14 15:14:49;;;;;;;0.30;0.30;;;;;;;;;;5073042;28;20371;-63
2022/08/14 15:17:15;;;;;;;1.90;0.57;;;;;;;;;;5067936;28;20017;-63
2022/08/14 15:19:42;;;;;;;0.53;0.50;;;;;;;;;;5067943;28;20028;-64
2022/08/14 15:22:09;;;;;;;1.27;0.77;;;;;;;;;;5078968;28;20028;-63